createdAt,value
2022-07-25T00:03:40.254Z,27
2022-07-25T00:06:37.018Z,27
2022-07-25T00:07:11.734Z,27
2022-07-25T00:09:37.436Z,26.9
2022-07-25T00:10:38.986Z,26.9
2022-07-25T00:12:20.913Z,26.9
2022-07-25T00:14:24.863Z,26.9
2022-07-25T00:15:30.525Z,26.9
2022-07-25T00:18:02.398Z,26.9
2022-07-25T00:18:37.004Z,26.9
2022-07-25T00:20:58.986Z,26.9
2022-07-25T00:21:38.611Z,26.9
2022-07-25T00:24:36.883Z,26.9
2022-07-25T00:26:41.167Z,26.9
2022-07-25T00:27:37.071Z,26.9
2022-07-25T00:28:48.603Z,26.9
2022-07-25T00:30:58.233Z,26.9
2022-07-25T00:31:53.222Z,26.9
2022-07-25T00:33:36.764Z,26.9
2022-07-25T00:36:37.158Z,26.9
2022-07-25T00:39:37.438Z,26.9
2022-07-25T00:42:16.103Z,26.9
2022-07-25T00:45:20.035Z,26.9
2022-07-25T00:48:37.182Z,26.8
2022-07-25T00:51:37.117Z,26.8
2022-07-25T00:53:44.374Z,26.8
2022-07-25T00:54:36.871Z,26.8
2022-07-25T00:57:39.349Z,26.8
2022-07-25T00:58:22.511Z,26.8
2022-07-25T00:59:39.556Z,26.8
2022-07-25T01:00:53.364Z,26.8
2022-07-25T01:03:37.466Z,26.8
2022-07-25T01:05:12.047Z,26.8
2022-07-25T01:06:36.912Z,26.8
2022-07-25T01:09:39.006Z,26.7
2022-07-25T01:10:35.163Z,26.7
2022-07-25T01:12:37.541Z,26.7
2022-07-25T01:13:51.369Z,26.7
2022-07-25T01:15:40.116Z,26.7
2022-07-25T01:18:34.998Z,26.6
2022-07-25T01:21:38.836Z,26.6
2022-07-25T01:23:52.237Z,26.6
2022-07-25T01:24:37.271Z,26.6
2022-07-25T01:27:37.590Z,26.6
2022-07-25T01:29:13.804Z,26.6
2022-07-25T01:31:41.593Z,26.6
2022-07-25T01:33:37.430Z,26.4
2022-07-25T01:36:37.063Z,26.4
2022-07-25T01:39:37.670Z,26.4
2022-07-25T01:41:07.330Z,26.4
2022-07-25T01:42:37.204Z,26.4
2022-07-25T01:43:26.809Z,26.4
2022-07-25T01:44:49.432Z,26.4
2022-07-25T01:45:39.080Z,26.4
2022-07-25T01:48:37.730Z,26.4
2022-07-25T01:49:20.589Z,26.4
2022-07-25T01:50:57.674Z,26.4
2022-07-25T01:51:37.098Z,26.3
2022-07-25T01:53:06.606Z,26.3
2022-07-25T01:54:37.753Z,26.3
2022-07-25T01:56:33.840Z,26.2
2022-07-25T01:57:49.679Z,26.2
2022-07-25T01:59:07.381Z,26.2
2022-07-25T02:03:37.219Z,26.2
2022-07-25T02:05:16.478Z,26.2
2022-07-25T02:06:37.570Z,26.2
2022-07-25T02:07:27.579Z,26.2
2022-07-25T02:09:38.644Z,26.2
2022-07-25T02:11:18.633Z,26.2
2022-07-25T02:12:36.959Z,26.2
2022-07-25T02:14:26.465Z,26.2
2022-07-25T02:15:37.548Z,26.2
2022-07-25T02:18:36.832Z,26.1
2022-07-25T02:20:49.809Z,26.1
2022-07-25T02:21:38.851Z,26.1
2022-07-25T02:22:32.012Z,26.1
2022-07-25T02:24:37.074Z,26.1
2022-07-25T02:27:27.318Z,26.1
2022-07-25T02:29:27.673Z,26.1
2022-07-25T02:31:19.483Z,26.1
2022-07-25T02:33:38.610Z,26.1
2022-07-25T02:36:37.267Z,26.1
2022-07-25T02:39:07.983Z,26.1
2022-07-25T02:41:34.246Z,26.1
2022-07-25T02:42:37.194Z,26.1
2022-07-25T02:45:38.072Z,26.1
2022-07-25T02:48:21.905Z,26.1
2022-07-25T02:51:00.091Z,26.1
2022-07-25T02:51:37.112Z,26.1
2022-07-25T02:54:37.293Z,26.1
2022-07-25T02:57:38.342Z,26.1
2022-07-25T03:01:48.177Z,26.1
2022-07-25T03:03:37.769Z,25.9
2022-07-25T03:04:17.950Z,25.9
2022-07-25T03:06:36.818Z,25.9
2022-07-25T03:09:27.994Z,25.8
2022-07-25T03:10:27.115Z,25.8
2022-07-25T03:12:37.072Z,25.8
2022-07-25T03:15:37.516Z,25.8
2022-07-25T03:18:37.066Z,25.7
2022-07-25T03:20:14.298Z,25.7
2022-07-25T03:20:58.489Z,25.7
2022-07-25T03:21:39.011Z,25.7
2022-07-25T03:24:37.239Z,25.6
2022-07-25T03:27:38.402Z,25.6
2022-07-25T03:28:45.117Z,25.6
2022-07-25T03:32:40.661Z,25.6
2022-07-25T03:33:36.985Z,25.6
2022-07-25T03:36:37.126Z,25.6
2022-07-25T03:39:37.615Z,25.4
2022-07-25T03:41:41.851Z,25.4
2022-07-25T03:42:36.780Z,25.4
2022-07-25T03:44:11.571Z,25.4
2022-07-25T03:45:38.952Z,25.4
2022-07-25T03:48:38.037Z,25.4
2022-07-25T03:49:29.107Z,25.4
2022-07-25T03:50:09.439Z,25.4
2022-07-25T03:51:37.362Z,25.4
2022-07-25T03:52:41.698Z,25.4
2022-07-25T03:54:37.525Z,25.4
2022-07-25T03:57:38.642Z,25.2
2022-07-25T04:01:26.880Z,25.2
2022-07-25T04:02:41.119Z,25.2
2022-07-25T04:03:37.086Z,25.2
2022-07-25T04:06:37.225Z,25.2
2022-07-25T04:12:37.561Z,25.2
2022-07-25T04:15:29.705Z,25.2
2022-07-25T04:17:46.458Z,25.2
2022-07-25T04:18:28.652Z,25.2
2022-07-25T04:20:20.451Z,25.2
2022-07-25T04:21:38.258Z,25.2
2022-07-25T04:24:37.513Z,25.2
2022-07-25T04:25:33.099Z,25.2
2022-07-25T04:27:37.418Z,25.2
2022-07-25T04:33:40.482Z,25.2
2022-07-25T04:36:36.615Z,25.2
2022-07-25T04:39:36.965Z,25.2
2022-07-25T04:42:09.310Z,25.2
2022-07-25T04:44:35.880Z,25.2
2022-07-25T04:45:38.671Z,25.2
2022-07-25T04:46:28.682Z,25.2
2022-07-25T04:48:48.568Z,25.2
2022-07-25T04:50:13.948Z,25.2
2022-07-25T04:51:37.312Z,25.2
2022-07-25T04:54:10.727Z,25.2
2022-07-25T04:57:19.528Z,25.4
2022-07-25T04:59:13.795Z,25.4
2022-07-25T04:59:58.993Z,25.4
2022-07-25T05:03:37.398Z,25.5
2022-07-25T05:06:27.791Z,25.5
2022-07-25T05:06:37.353Z,25.5
2022-07-25T05:09:43.387Z,25.6
2022-07-25T05:10:41.023Z,25.6
2022-07-25T05:12:07.344Z,25.7
2022-07-25T05:12:37.729Z,25.7
2022-07-25T05:15:37.359Z,25.7
2022-07-25T05:16:43.765Z,25.7
2022-07-25T05:18:37.109Z,25.8
2022-07-25T05:20:28.382Z,25.8
2022-07-25T05:21:39.617Z,25.8
2022-07-25T05:24:37.419Z,25.9
2022-07-25T05:25:30.639Z,25.9
2022-07-25T05:27:38.046Z,25.9
2022-07-25T05:29:35.732Z,25.9
2022-07-25T05:33:36.997Z,26
2022-07-25T05:36:37.757Z,26
2022-07-25T05:37:14.159Z,26.1
2022-07-25T05:39:37.113Z,26.1
2022-07-25T05:41:08.901Z,26.1
2022-07-25T05:42:37.356Z,26.2
2022-07-25T05:44:28.870Z,26.2
2022-07-25T05:45:38.490Z,26.2
2022-07-25T05:48:37.690Z,26.3
2022-07-25T05:50:40.730Z,26.3
2022-07-25T05:51:37.473Z,26.3
2022-07-25T05:52:22.024Z,26.5
2022-07-25T05:53:48.105Z,26.5
2022-07-25T05:54:31.589Z,26.5
2022-07-25T05:57:56.846Z,26.5
2022-07-25T06:27:39.700Z,27.5
2022-07-25T06:29:11.055Z,27.5
2022-07-25T06:33:37.748Z,27.5
2022-07-25T06:36:35.527Z,27.7
2022-07-25T06:39:42.567Z,27.7
2022-07-25T06:40:17.947Z,27.7
2022-07-25T06:42:37.509Z,27.7
2022-07-25T06:45:39.482Z,27.9
2022-07-25T06:48:37.446Z,27.9
2022-07-25T06:51:20.219Z,27.9
2022-07-25T06:54:37.133Z,28.4
2022-07-25T06:57:37.497Z,28.4
2022-07-25T07:03:37.261Z,28.4
2022-07-25T07:05:56.039Z,28.9
2022-07-25T07:06:37.447Z,28.9
2022-07-25T07:09:38.631Z,28.9
2022-07-25T07:12:13.182Z,29.1
2022-07-25T07:15:38.473Z,29.1
2022-07-25T07:18:37.117Z,29.2
2022-07-25T07:19:50.215Z,29.2
2022-07-25T07:21:40.851Z,29.2
2022-07-25T07:23:25.280Z,29.4
2022-07-25T07:24:48.505Z,29.4
2022-07-25T07:25:21.933Z,29.4
2022-07-25T07:26:45.390Z,29.4
2022-07-25T07:27:37.279Z,29.5
2022-07-25T07:33:35.738Z,29.7
2022-07-25T07:36:36.991Z,29.7
2022-07-25T07:39:18.131Z,29.9
2022-07-25T07:41:59.041Z,29.9
2022-07-25T07:42:37.403Z,30.2
2022-07-25T07:45:05.385Z,30.2
2022-07-25T07:48:37.001Z,30.4
2022-07-25T07:51:37.817Z,30.4
2022-07-25T07:54:36.918Z,30.7
2022-07-25T07:55:36.196Z,30.7
2022-07-25T07:57:39.020Z,31.1
2022-07-25T07:59:44.021Z,31.1
2022-07-25T08:03:37.110Z,31.1
2022-07-25T08:06:37.297Z,31.4
2022-07-25T08:09:39.014Z,31.5
2022-07-25T08:10:20.916Z,31.5
2022-07-25T08:12:37.603Z,31.5
2022-07-25T08:13:31.172Z,31.5
2022-07-25T08:15:37.295Z,31.5
2022-07-25T08:16:33.400Z,31.5
2022-07-25T08:18:37.552Z,31.6
2022-07-25T08:21:39.047Z,31.6
2022-07-25T08:23:08.846Z,31.9
2022-07-25T08:24:37.176Z,31.9
2022-07-25T08:27:37.816Z,32.1
2022-07-25T08:33:37.530Z,31.6
2022-07-25T08:34:43.366Z,31.6
2022-07-25T08:35:13.785Z,31.6
2022-07-25T08:36:38.055Z,31.6
2022-07-25T08:39:31.258Z,31.4
2022-07-25T08:41:38.705Z,31.4
2022-07-25T08:42:37.466Z,31.3
2022-07-25T08:43:31.092Z,31.3
2022-07-25T08:45:08.997Z,31.3
2022-07-25T08:46:54.640Z,31.3
2022-07-25T08:48:37.300Z,31.4
2022-07-25T08:51:11.756Z,31.4
2022-07-25T08:53:49.582Z,31.5
2022-07-25T08:54:37.179Z,31.5
2022-07-25T08:57:37.770Z,31.5
2022-07-25T08:59:16.038Z,31.5
2022-07-25T08:59:50.368Z,31.5
2022-07-25T09:03:37.910Z,31.7
2022-07-25T09:06:37.632Z,31.7
2022-07-25T09:09:38.801Z,31.8
2022-07-25T09:10:43.819Z,31.8
2022-07-25T09:12:40.155Z,32.2
2022-07-25T09:15:19.629Z,32.2
2022-07-25T09:18:18.069Z,32.5
2022-07-25T09:21:39.216Z,32.5
2022-07-25T09:24:34.456Z,32.3
2022-07-25T09:27:37.679Z,32.7
2022-07-25T09:29:07.760Z,32.7
2022-07-25T09:36:37.859Z,32.5
2022-07-25T09:37:22.855Z,32.6
2022-07-25T09:39:48.638Z,32.6
2022-07-25T09:41:12.991Z,32.6
2022-07-25T09:42:37.768Z,32.9
2022-07-25T09:45:38.833Z,32.9
2022-07-25T09:48:37.440Z,32.9
2022-07-25T09:51:36.881Z,32.9
2022-07-25T09:54:29.230Z,33.2
2022-07-25T09:55:54.850Z,33.2
2022-07-25T09:57:37.424Z,33.3
2022-07-25T09:59:29.259Z,33.3
2022-07-25T10:02:23.452Z,33.3
2022-07-25T10:03:37.016Z,33.3
2022-07-25T10:06:37.592Z,33.2
2022-07-25T10:09:38.603Z,33.4
2022-07-25T10:17:30.988Z,33.4
2022-07-25T10:18:36.954Z,33.4
2022-07-25T10:20:09.201Z,33.4
2022-07-25T10:20:55.907Z,33.4
2022-07-25T10:25:27.195Z,33.4
2022-07-25T10:27:36.916Z,33.4
2022-07-25T10:30:55.273Z,33.6
2022-07-25T10:33:46.793Z,33.6
2022-07-25T10:36:30.810Z,33.8
2022-07-25T10:39:37.345Z,33.9
2022-07-25T10:42:37.001Z,34
2022-07-25T10:45:10.211Z,34
2022-07-25T10:46:25.453Z,34
2022-07-25T10:47:42.159Z,34.1
2022-07-25T10:48:37.577Z,34.1
2022-07-25T10:51:42.636Z,34.1
2022-07-25T10:53:51.717Z,34
2022-07-25T10:54:36.831Z,34
2022-07-25T10:58:18.666Z,34
2022-07-25T10:58:47.222Z,34
2022-07-25T11:00:19.774Z,34
2022-07-25T11:04:10.843Z,34
2022-07-25T11:17:37.804Z,34
2022-07-25T11:24:39.608Z,34.3
2022-07-25T11:27:36.755Z,34.4
2022-07-25T11:30:05.949Z,34.4
2022-07-25T11:33:39.506Z,34.5
2022-07-25T11:35:44.115Z,34.5
2022-07-25T11:36:42.310Z,34.5
2022-07-25T11:38:09.507Z,34.4
2022-07-25T11:39:37.977Z,34.4
2022-07-25T11:42:37.573Z,34.3
2022-07-25T11:43:42.396Z,34.3
2022-07-25T11:45:38.812Z,34.3
2022-07-25T11:47:31.715Z,34.3
2022-07-25T11:48:37.072Z,34.3
2022-07-25T11:50:15.263Z,34.3
2022-07-25T11:51:36.916Z,34.3
2022-07-25T11:54:37.863Z,34.5
2022-07-25T11:57:38.847Z,35
2022-07-25T12:03:38.218Z,35
2022-07-25T12:04:17.892Z,35
2022-07-25T12:06:37.262Z,35
2022-07-25T12:07:59.377Z,35.2
2022-07-25T12:09:37.172Z,35.2
2022-07-25T12:11:53.112Z,35.2
2022-07-25T12:12:36.982Z,35.2
2022-07-25T12:13:43.924Z,35.2
2022-07-25T12:14:35.912Z,35.2
2022-07-25T12:18:42.019Z,35.2
2022-07-25T12:20:35.078Z,35.2
2022-07-25T12:21:38.610Z,35.2
2022-07-25T12:22:38.125Z,35.2
2022-07-25T12:23:40.959Z,35.2
2022-07-25T12:24:37.100Z,35.2
2022-07-25T12:27:37.339Z,35.2
2022-07-25T12:33:38.055Z,35.2
2022-07-25T12:36:14.896Z,35.5
2022-07-25T12:39:37.284Z,35.6
2022-07-25T12:42:38.112Z,35.5
2022-07-25T12:45:11.824Z,35.5
2022-07-25T12:48:37.869Z,35.3
2022-07-25T12:49:42.053Z,35.3
2022-07-25T12:51:37.146Z,35.3
2022-07-25T12:52:13.616Z,35.5
2022-07-25T12:54:01.570Z,35.5
2022-07-25T12:54:38.890Z,35.5
2022-07-25T12:57:21.331Z,35.5
2022-07-25T13:00:43.729Z,35.5
2022-07-25T13:06:39.617Z,35.5
2022-07-25T13:08:01.789Z,35.7
2022-07-25T13:09:48.959Z,35.7
2022-07-25T13:11:07.607Z,35.7
2022-07-25T13:12:37.763Z,35.5
2022-07-25T13:15:40.016Z,35.5
2022-07-25T13:18:37.927Z,35.5
2022-07-25T13:19:22.998Z,35.5
2022-07-25T13:21:38.936Z,35.5
2022-07-25T13:22:35.341Z,35.7
2022-07-25T13:24:36.948Z,35.7
2022-07-25T13:27:37.707Z,36.1
2022-07-25T13:32:45.092Z,36.1
2022-07-25T13:33:37.805Z,36.2
2022-07-25T13:34:45.061Z,36.1
2022-07-25T13:35:40.442Z,36.1
2022-07-25T13:39:06.947Z,36.1
2022-07-25T13:42:37.346Z,36.1
2022-07-25T13:44:17.678Z,35.8
2022-07-25T13:45:38.662Z,35.8
2022-07-25T13:54:37.587Z,35.9
2022-07-25T13:57:38.697Z,35.9
2022-07-25T13:59:58.093Z,35.5
2022-07-25T14:03:37.083Z,35.5
2022-07-25T14:06:36.978Z,35.5
2022-07-25T14:08:23.401Z,35.8
2022-07-25T14:09:39.036Z,35.8
2022-07-25T14:12:37.600Z,35.8
2022-07-25T14:15:13.318Z,35.8
2022-07-25T14:18:34.480Z,35.8
2022-07-25T14:21:38.537Z,35.8
2022-07-25T14:24:12.351Z,35.8
2022-07-25T14:27:37.692Z,35.8
2022-07-25T14:29:42.796Z,35.8
2022-07-25T14:33:38.456Z,36.3
2022-07-25T14:36:44.064Z,36.3
2022-07-25T14:37:14.588Z,36.2
2022-07-25T14:39:37.397Z,36.2
2022-07-25T14:42:14.797Z,35.9
2022-07-25T14:43:46.360Z,35.9
2022-07-25T14:45:39.256Z,35.9
2022-07-25T14:48:38.978Z,35.5
2022-07-25T14:51:37.392Z,35.5
2022-07-25T14:52:43.651Z,35.3
2022-07-25T14:54:37.828Z,35.3
2022-07-25T14:56:26.166Z,35.3
2022-07-25T14:57:38.872Z,35.1
2022-07-25T15:02:19.246Z,35.1
2022-07-25T15:03:37.311Z,34.9
2022-07-25T15:06:37.492Z,34.9
2022-07-25T15:09:38.796Z,34.7
2022-07-25T15:12:37.368Z,34.5
2022-07-25T15:15:37.368Z,34.5
2022-07-25T15:17:44.904Z,34.4
2022-07-25T15:19:17.874Z,34.4
2022-07-25T15:19:27.343Z,34.4
2022-07-25T15:20:52.347Z,34.4
2022-07-25T15:21:38.618Z,34.4
2022-07-25T15:24:04.392Z,34.4
2022-07-25T15:26:03.697Z,34.4
2022-07-25T15:27:37.477Z,34.4
2022-07-25T15:29:22.662Z,34.4
2022-07-25T15:31:15.490Z,34.4
2022-07-25T15:33:37.262Z,34.4
2022-07-25T15:36:30.472Z,34.4
2022-07-25T15:39:05.782Z,34.8
2022-07-25T15:39:37.434Z,34.8
2022-07-25T15:42:18.096Z,35
2022-07-25T15:51:39.292Z,35
2022-07-25T15:54:37.551Z,35.2
2022-07-25T15:57:37.677Z,35.2
2022-07-25T15:58:38.986Z,35.2
2022-07-25T16:03:37.082Z,35.1
2022-07-25T16:05:36.135Z,35.1
2022-07-25T16:06:37.391Z,35.1
2022-07-25T16:07:13.516Z,35
2022-07-25T16:09:38.818Z,35
2022-07-25T16:11:34.411Z,35
2022-07-25T16:12:37.745Z,35
2022-07-25T16:15:33.486Z,35
2022-07-25T16:17:13.888Z,35
2022-07-25T16:18:43.667Z,35
2022-07-25T16:19:14.044Z,35
2022-07-25T16:21:39.088Z,35
2022-07-25T16:24:37.557Z,34.8
2022-07-25T16:27:32.898Z,34.7
2022-07-25T16:31:52.741Z,34.7
2022-07-25T16:33:37.323Z,34.7
2022-07-25T16:36:37.687Z,34.5
2022-07-25T16:39:25.751Z,34.5
2022-07-25T16:40:31.808Z,34.5
2022-07-25T16:42:37.916Z,34.5
2022-07-25T16:45:11.135Z,34.5
2022-07-25T16:47:27.167Z,34.5
2022-07-25T16:48:36.861Z,34.4
2022-07-25T16:50:33.880Z,34.4
2022-07-25T16:51:38.863Z,34.4
2022-07-25T16:54:37.171Z,34.4
2022-07-25T16:56:43.567Z,34.4
2022-07-25T16:57:37.773Z,34.4
2022-07-25T17:00:19.076Z,34.1
2022-07-25T17:03:37.441Z,34.1
2022-07-25T17:06:38.397Z,34.1
2022-07-25T17:09:02.473Z,34.1
2022-07-25T17:09:38.621Z,34.1
2022-07-25T17:11:32.005Z,34.1
2022-07-25T17:12:37.068Z,34
2022-07-25T17:15:37.960Z,34
2022-07-25T17:18:37.635Z,34
2022-07-25T17:19:37.420Z,34
2022-07-25T17:21:39.155Z,34
2022-07-25T17:24:36.645Z,33.9
2022-07-25T17:26:51.670Z,33.9
2022-07-25T17:27:37.371Z,33.9
2022-07-25T17:29:01.794Z,33.9
2022-07-25T17:30:58.867Z,33.9
2022-07-25T17:33:36.453Z,33.8
2022-07-25T17:35:32.625Z,33.8
2022-07-25T17:36:36.670Z,33.8
2022-07-25T17:37:17.352Z,33.8
2022-07-25T17:39:36.901Z,33.8
2022-07-25T17:42:24.674Z,33.8
2022-07-25T17:45:38.653Z,33.8
2022-07-25T17:47:25.146Z,33.7
2022-07-25T17:48:42.590Z,33.7
2022-07-25T17:49:34.485Z,33.7
2022-07-25T17:51:08.050Z,33.7
2022-07-25T17:53:31.073Z,33.7
2022-07-25T17:54:37.834Z,33.7
2022-07-25T17:57:38.907Z,33.6
2022-07-25T18:03:37.240Z,33.6
2022-07-25T18:06:08.765Z,33.6
2022-07-25T18:09:38.789Z,33.5
2022-07-25T18:12:08.543Z,33.5
2022-07-25T18:14:12.007Z,33.4
2022-07-25T18:15:37.738Z,33.4
2022-07-25T18:17:25.135Z,33.3
2022-07-25T18:18:37.672Z,33.3
2022-07-25T18:21:40.413Z,33.3
2022-07-25T18:23:13.748Z,33.1
2022-07-25T18:24:36.752Z,33.1
2022-07-25T18:27:11.903Z,33.1
2022-07-25T18:29:29.125Z,33.1
2022-07-25T18:33:37.287Z,32.9
2022-07-25T18:35:35.358Z,32.9
2022-07-25T18:36:37.006Z,32.9
2022-07-25T18:38:56.329Z,32.8
2022-07-25T18:39:39.105Z,32.8
2022-07-25T18:42:34.147Z,32.6
2022-07-25T18:48:43.756Z,32.5
2022-07-25T18:51:38.060Z,32.5
2022-07-25T18:54:38.585Z,32.3
2022-07-25T18:55:13.350Z,32.3
2022-07-25T18:57:40.306Z,32.3
2022-07-25T18:58:20.298Z,32.3
2022-07-25T19:01:29.781Z,32.3
2022-07-25T19:03:38.318Z,32
2022-07-25T19:06:37.772Z,32
2022-07-25T19:09:44.516Z,31.9
2022-07-25T19:12:37.152Z,31.8
2022-07-25T19:14:01.050Z,31.8
2022-07-25T19:15:38.183Z,31.8
2022-07-25T19:18:37.785Z,31.7
2022-07-25T19:21:38.834Z,31.7
2022-07-25T19:23:52.069Z,31.7
2022-07-25T19:24:36.951Z,31.7
2022-07-25T19:25:35.889Z,31.7
2022-07-25T19:27:37.829Z,31.5
2022-07-25T19:31:54.000Z,31.5
2022-07-25T19:32:27.288Z,31.5
2022-07-25T19:33:37.574Z,31.4
2022-07-25T19:35:29.878Z,31.4
2022-07-25T19:36:36.998Z,31.4
2022-07-25T19:39:37.528Z,31.3
2022-07-25T19:42:36.868Z,31.3
2022-07-25T19:44:05.984Z,31.1
2022-07-25T19:47:01.893Z,31.1
2022-07-25T19:49:25.907Z,31.1
2022-07-25T20:12:38.532Z,30.8
2022-07-25T20:15:37.074Z,30.8
2022-07-25T20:18:37.233Z,30.8
2022-07-25T20:19:21.001Z,30.8
2022-07-25T20:21:38.556Z,30.8
2022-07-25T20:22:48.516Z,30.8
2022-07-25T20:24:37.327Z,30.8
2022-07-25T20:26:10.928Z,30.8
2022-07-25T20:27:39.716Z,30.7
2022-07-25T20:33:38.262Z,30.7
2022-07-25T20:35:22.203Z,30.7
2022-07-25T20:39:37.723Z,30.7
2022-07-25T20:42:37.164Z,30.7
2022-07-25T20:45:27.499Z,30.7
2022-07-25T20:47:21.412Z,30.7
2022-07-25T20:48:38.148Z,30.7
2022-07-25T20:50:30.832Z,30.7
2022-07-25T20:51:37.214Z,30.7
2022-07-25T20:54:37.247Z,30.7
2022-07-25T20:56:26.087Z,30.7
2022-07-25T20:57:11.071Z,30.7
2022-07-25T20:58:50.623Z,30.7
2022-07-25T21:03:37.247Z,30.6
2022-07-25T21:06:33.534Z,30.6
2022-07-25T21:09:38.658Z,30.5
2022-07-25T21:12:36.869Z,29.7
2022-07-25T21:13:47.929Z,29.7
2022-07-25T21:15:14.925Z,29.7
2022-07-25T21:18:42.254Z,29.7
2022-07-25T21:24:37.834Z,29.7
2022-07-25T21:26:15.475Z,29.7
2022-07-25T21:27:38.332Z,27.5
2022-07-25T21:30:18.337Z,27.5
2022-07-25T21:33:37.952Z,27
2022-07-25T21:36:37.654Z,27
2022-07-25T21:45:39.546Z,27
2022-07-25T21:46:48.284Z,27
2022-07-25T21:48:37.067Z,25.9
2022-07-25T21:49:43.416Z,25.9
2022-07-25T21:51:43.135Z,25.9
2022-07-25T21:54:37.484Z,26
2022-07-25T21:56:59.176Z,26
2022-07-25T21:58:39.224Z,26
2022-07-25T21:59:20.750Z,26
2022-07-25T22:09:38.954Z,26.7
2022-07-25T22:12:37.344Z,26.7
2022-07-25T22:15:37.697Z,26.7
2022-07-25T22:18:38.527Z,26.5
2022-07-25T22:21:18.724Z,26.3
2022-07-25T22:24:37.396Z,26.3
2022-07-25T22:25:24.606Z,26.3
2022-07-25T22:26:04.562Z,26.3
2022-07-25T22:27:36.752Z,26
2022-07-25T22:28:35.421Z,26
2022-07-25T22:31:36.389Z,26
2022-07-25T22:35:15.594Z,26
2022-07-25T22:36:56.054Z,26
2022-07-25T22:37:56.322Z,25.2
2022-07-25T22:51:38.612Z,25.2
2022-07-25T23:12:39.929Z,25.2
2022-07-25T23:15:52.079Z,25.2
2022-07-25T23:16:15.532Z,25.2
2022-07-25T23:18:36.857Z,25.2
2022-07-25T23:20:07.388Z,25.2
2022-07-25T23:21:39.659Z,25.2
2022-07-25T23:22:12.406Z,25.2
2022-07-25T23:24:38.751Z,25.2
2022-07-25T23:30:47.793Z,25.2
2022-07-25T23:33:40.320Z,25.7
2022-07-25T23:36:39.095Z,25.7
2022-07-25T23:37:43.250Z,25.7
2022-07-25T23:39:15.924Z,25.7
2022-07-25T23:42:38.471Z,25.9
2022-07-25T23:45:36.648Z,25.9
2022-07-25T23:54:36.986Z,25.9
2022-07-25T23:55:26.499Z,25.9
2022-07-25T23:57:37.562Z,25.9
